Time;durP1;ratioP1;P1;durP2;ratioP2;P2;SDS_P1;SDS_P2;PMS_P1;PMS_P2;Temp;Humidity;BMP_temperature;BMP_pressure;BME280_temperature;BME280_humidity;BME280_pressure;Samples;Min_cycle;Max_cycle;Signal;HPM_P1;HPM_P2
2022/12/03 00:00:45;;;;;;;33.10;17.08;;;3.20;99.90;;;;;;5094925;28;20071;-66
2022/12/03 00:03:11;;;;;;;38.25;20.40;;;3.20;99.90;;;;;;5113196;28;20047;-66
2022/12/03 00:05:37;;;;;;;37.85;19.92;;;3.20;99.90;;;;;;5078544;28;20383;-66
2022/12/03 00:08:02;;;;;;;36.25;17.10;;;3.20;99.90;;;;;;5095673;28;20043;-66
2022/12/03 00:10:28;;;;;;;32.95;17.38;;;3.30;99.90;;;;;;5078519;28;20040;-66
2022/12/03 00:12:54;;;;;;;32.10;17.30;;;3.30;99.90;;;;;;5094757;28;20032;-66
2022/12/03 00:15:20;;;;;;;36.65;17.75;;;3.30;99.90;;;;;;5094902;28;20082;-65
2022/12/03 00:17:45;;;;;;;36.47;17.63;;;3.30;99.90;;;;;;5077575;28;20491;-66
2022/12/03 00:20:20;;;;;;;40.17;18.77;;;3.30;99.90;;;;;;5112888;28;20055;-66
2022/12/03 00:22:46;;;;;;;37.88;17.83;;;3.30;99.90;;;;;;5112653;28;20043;-66
2022/12/03 00:25:11;;;;;;;35.38;18.23;;;3.20;99.90;;;;;;5112781;28;20047;-66
2022/12/03 00:27:37;;;;;;;37.55;18.88;;;3.30;99.90;;;;;;5095012;28;20143;-66
2022/12/03 00:30:04;;;;;;;39.05;18.90;;;3.20;99.90;;;;;;5113523;28;20047;-66
2022/12/03 00:32:30;;;;;;;34.35;17.00;;;3.20;99.90;;;;;;5078468;28;20075;-66
2022/12/03 00:34:56;;;;;;;41.97;19.05;;;3.20;99.90;;;;;;5113202;28;20407;-66
2022/12/03 00:37:21;;;;;;;38.83;17.02;;;3.20;99.90;;;;;;5095019;28;20479;-66
2022/12/03 00:39:47;;;;;;;37.38;17.52;;;3.20;99.90;;;;;;5113658;28;20031;-66
2022/12/03 00:42:13;;;;;;;36.35;18.08;;;3.20;99.90;;;;;;5112895;28;20040;-66
2022/12/03 00:44:39;;;;;;;36.00;16.08;;;3.10;99.90;;;;;;5095190;28;20039;-66
2022/12/03 00:47:05;;;;;;;39.00;18.90;;;3.10;99.90;;;;;;5113322;28;20118;-65
2022/12/03 00:49:30;;;;;;;36.47;18.27;;;3.10;99.90;;;;;;5095009;28;20063;-66
2022/12/03 00:51:56;;;;;;;37.50;17.20;;;3.10;99.90;;;;;;5112730;28;20055;-66
2022/12/03 00:54:22;;;;;;;38.33;17.65;;;3.10;99.90;;;;;;5094872;28;20044;-66
2022/12/03 00:56:47;;;;;;;34.15;17.15;;;3.10;99.90;;;;;;5094679;28;20038;-66
2022/12/03 00:59:13;;;;;;;35.42;17.80;;;3.20;99.90;;;;;;5112482;28;20418;-66
2022/12/03 01:01:39;;;;;;;31.63;15.07;;;3.20;99.90;;;;;;5113099;28;20066;-66
2022/12/03 01:04:05;;;;;;;34.35;16.30;;;3.20;99.90;;;;;;5113116;28;20540;-66
2022/12/03 01:06:30;;;;;;;34.63;16.33;;;3.30;99.90;;;;;;5077950;28;20513;-66
2022/12/03 01:08:56;;;;;;;34.67;16.60;;;3.30;99.90;;;;;;5077159;28;20496;-66
2022/12/03 01:11:37;;;;;;;36.33;16.92;;;3.30;99.90;;;;;;5111308;28;20692;-66
2022/12/03 01:14:09;;;;;;;38.38;16.55;;;3.30;99.90;;;;;;5111715;28;20495;-66
2022/12/03 01:16:35;;;;;;;34.42;15.77;;;3.30;99.90;;;;;;5111827;28;20035;-66
2022/12/03 01:19:01;;;;;;;31.90;16.48;;;3.40;99.90;;;;;;5111587;28;20503;-66
2022/12/03 01:21:27;;;;;;;30.63;15.27;;;3.40;99.90;;;;;;5076711;28;20051;-66
2022/12/03 01:23:53;;;;;;;34.65;16.38;;;3.40;99.90;;;;;;5111639;28;20131;-66
2022/12/03 01:26:19;;;;;;;34.78;17.60;;;3.40;99.90;;;;;;5075971;28;20104;-66
2022/12/03 01:28:45;;;;;;;35.15;16.85;;;3.50;99.90;;;;;;5093135;28;20044;-66
2022/12/03 01:33:54;;;;;;;31.50;14.25;;;3.50;99.90;;;;;;5111737;28;20047;-66
2022/12/03 01:36:20;;;;;;;33.95;16.08;;;3.50;99.90;;;;;;5093137;28;20467;-66
2022/12/03 01:38:47;;;;;;;29.02;15.60;;;3.50;99.90;;;;;;5076102;28;20092;-66
2022/12/03 01:41:15;;;;;;;34.63;16.35;;;3.50;99.90;;;;;;5092797;28;20509;-66
2022/12/03 01:43:42;;;;;;;34.10;16.23;;;3.50;99.90;;;;;;5093276;28;20126;-66
2022/12/03 01:46:11;;;;;;;30.67;15.43;;;3.50;99.90;;;;;;5093070;28;20039;-66
2022/12/03 01:48:37;;;;;;;32.90;15.02;;;3.60;99.90;;;;;;5111028;28;20169;-66
2022/12/03 01:51:03;;;;;;;30.30;15.38;;;3.60;99.90;;;;;;5092869;28;20043;-66
2022/12/03 01:53:29;;;;;;;34.70;16.35;;;3.60;99.90;;;;;;5110217;28;20415;-66
2022/12/03 01:55:55;;;;;;;29.60;14.25;;;3.50;99.90;;;;;;5092830;28;20050;-66
2022/12/03 01:58:25;;;;;;;29.90;15.13;;;3.60;99.90;;;;;;5092940;28;20507;-67
2022/12/03 02:00:51;;;;;;;29.10;14.57;;;3.60;99.90;;;;;;5110910;28;20043;-66
2022/12/03 02:03:23;;;;;;;27.33;14.30;;;3.70;99.90;;;;;;5110960;28;20040;-67
2022/12/03 02:05:49;;;;;;;25.77;14.35;;;3.70;99.90;;;;;;5110839;28;20118;-66
2022/12/03 02:08:33;;;;;;;26.30;12.48;;;3.80;99.90;;;;;;5092032;28;20222;-66
2022/12/03 02:11:20;;;;;;;30.58;15.48;;;3.80;99.90;;;;;;5110142;28;20046;-66
2022/12/03 02:13:49;;;;;;;25.10;13.57;;;3.90;99.90;;;;;;5092386;28;20048;-66
2022/12/03 02:16:15;;;;;;;23.23;12.63;;;3.90;99.90;;;;;;5110757;28;20040;-67
2022/12/03 02:18:42;;;;;;;27.85;14.27;;;4.00;99.90;;;;;;5110593;28;20043;-67
2022/12/03 02:21:28;;;;;;;29.05;14.00;;;4.00;99.90;;;;;;5110459;28;20043;-66
2022/12/03 02:24:41;;;;;;;26.95;14.65;;;4.00;99.90;;;;;;5110139;28;20053;-67
2022/12/03 02:27:07;;;;;;;24.95;14.18;;;4.00;99.90;;;;;;5087415;28;20035;-67
2022/12/03 02:29:33;;;;;;;24.52;13.57;;;4.00;99.90;;;;;;5110166;28;20387;-67
2022/12/03 02:31:58;;;;;;;27.45;14.85;;;4.00;99.90;;;;;;5092213;28;20325;-66
2022/12/03 02:34:37;;;;;;;26.98;13.75;;;4.00;99.90;;;;;;5075066;28;20490;-67
2022/12/03 02:37:06;;;;;;;25.38;14.05;;;4.10;99.90;;;;;;5091398;28;20046;-66
2022/12/03 02:39:35;;;;;;;27.65;15.15;;;4.10;99.90;;;;;;5091921;28;20044;-66
2022/12/03 02:44:46;;;;;;;25.60;14.05;;;4.00;99.90;;;;;;5108488;28;20047;-66
2022/12/03 02:47:11;;;;;;;32.60;16.25;;;4.00;99.90;;;;;;5089948;28;20179;-67
2022/12/03 02:49:37;;;;;;;29.52;15.35;;;3.90;99.90;;;;;;5073170;28;20047;-66
2022/12/03 02:52:03;;;;;;;25.58;14.07;;;3.90;99.90;;;;;;5089086;28;20070;-67
2022/12/03 02:54:29;;;;;;;27.25;15.02;;;3.90;99.90;;;;;;5106655;28;20051;-67
2022/12/03 02:56:55;;;;;;;28.42;15.57;;;3.90;99.90;;;;;;5089946;28;20092;-66
2022/12/03 02:59:21;;;;;;;27.83;15.15;;;3.90;99.90;;;;;;5089983;28;20040;-67
2022/12/03 03:01:47;;;;;;;27.35;14.90;;;3.80;99.90;;;;;;5090747;28;20395;-66
2022/12/03 03:04:13;;;;;;;32.28;16.23;;;3.80;99.90;;;;;;5091790;28;20109;-66
2022/12/03 03:06:39;;;;;;;30.08;16.20;;;3.80;99.90;;;;;;5091018;28;20520;-66
2022/12/03 03:09:05;;;;;;;31.08;16.08;;;3.80;99.90;;;;;;5091632;28;20039;-67
2022/12/03 03:11:31;;;;;;;29.27;16.25;;;3.70;99.90;;;;;;5074599;28;20076;-66
2022/12/03 03:13:56;;;;;;;27.10;14.85;;;3.70;99.90;;;;;;5109809;28;20119;-66
2022/12/03 03:16:22;;;;;;;29.15;15.57;;;3.70;99.90;;;;;;5109688;28;20040;-66
2022/12/03 03:18:48;;;;;;;26.33;13.98;;;3.70;99.90;;;;;;5109761;28;20088;-66
2022/12/03 03:21:14;;;;;;;27.33;15.27;;;3.70;99.90;;;;;;5074341;28;20054;-67
2022/12/03 03:23:39;;;;;;;30.52;14.93;;;3.70;99.90;;;;;;5095574;28;20040;-67
2022/12/03 03:26:08;;;;;;;24.80;14.40;;;3.70;99.90;;;;;;5095480;28;20039;-66
2022/12/03 03:28:37;;;;;;;28.85;15.55;;;3.70;99.90;;;;;;5078633;28;20050;-67
2022/12/03 03:31:05;;;;;;;26.38;14.38;;;3.70;99.90;;;;;;5095666;28;20040;-67
2022/12/03 03:33:32;;;;;;;24.60;14.52;;;3.70;99.90;;;;;;5113622;28;20100;-66
2022/12/03 03:35:59;;;;;;;27.50;14.77;;;3.70;99.90;;;;;;5113062;28;20036;-67
2022/12/03 03:38:28;;;;;;;30.52;15.85;;;3.70;99.90;;;;;;5078423;28;20349;-67
2022/12/03 03:40:55;;;;;;;27.85;13.82;;;3.70;99.90;;;;;;5113728;28;20054;-67
2022/12/03 03:43:21;;;;;;;24.80;14.10;;;3.80;99.90;;;;;;5114149;28;20069;-66
2022/12/03 03:45:49;;;;;;;24.33;14.02;;;3.70;99.90;;;;;;5114426;28;20043;-67
2022/12/03 03:48:15;;;;;;;25.50;14.73;;;3.70;99.90;;;;;;5114510;28;20036;-66
2022/12/03 03:50:42;;;;;;;25.50;14.75;;;3.70;99.90;;;;;;5095544;28;20046;-68
2022/12/03 03:53:08;;;;;;;29.05;14.68;;;3.70;99.90;;;;;;5078922;28;20510;-66
2022/12/03 03:55:34;;;;;;;25.65;16.52;;;3.70;99.90;;;;;;5095910;28;20082;-66
2022/12/03 03:58:00;;;;;;;26.77;14.77;;;3.70;99.90;;;;;;5096179;28;20075;-67
2022/12/03 04:00:26;;;;;;;29.58;16.20;;;3.70;99.90;;;;;;5096138;28;20062;-67
2022/12/03 04:02:52;;;;;;;25.52;14.25;;;3.70;99.90;;;;;;5095263;28;20591;-67
2022/12/03 04:05:21;;;;;;;24.63;13.50;;;3.70;99.90;;;;;;5094983;28;20092;-66
2022/12/03 04:07:47;;;;;;;25.70;15.15;;;3.70;99.90;;;;;;5095328;28;20035;-66
2022/12/03 04:13:03;;;;;;;28.30;16.00;;;3.70;99.90;;;;;;5053940;28;20135;-67
2022/12/03 04:15:29;;;;;;;28.30;15.32;;;3.60;99.90;;;;;;5070441;28;20392;-66
2022/12/03 04:20:40;;;;;;;26.77;14.77;;;3.60;99.90;;;;;;5053469;28;20044;-67
2022/12/03 04:23:06;;;;;;;25.48;14.43;;;3.60;99.90;;;;;;5070563;28;20048;-67
2022/12/03 04:35:41;;;;;;;29.05;15.30;;;3.60;99.90;;;;;;5054070;28;20080;-67
2022/12/03 04:36:30;;;;;;;27.05;15.80;;;3.50;99.90;;;;;;5070536;28;20049;-67
2022/12/03 04:38:56;;;;;;;23.70;14.32;;;3.50;99.90;;;;;;5070455;28;20046;-66
2022/12/03 04:41:21;;;;;;;25.55;14.30;;;3.50;99.90;;;;;;5053598;28;20071;-67
2022/12/03 04:46:31;;;;;;;25.27;15.25;;;3.40;99.90;;;;;;5053908;28;20052;-66
2022/12/03 04:48:57;;;;;;;24.58;13.88;;;3.40;99.90;;;;;;5071685;28;20511;-67
2022/12/03 04:51:23;;;;;;;27.98;15.52;;;3.40;99.90;;;;;;5074061;28;20049;-66
2022/12/03 04:53:48;;;;;;;23.88;14.18;;;3.50;99.90;;;;;;5093252;28;20193;-67
2022/12/03 04:56:14;;;;;;;23.98;13.82;;;3.50;99.90;;;;;;5092972;28;20448;-66
2022/12/03 04:58:40;;;;;;;28.50;15.48;;;3.50;99.90;;;;;;5108536;28;20481;-66
2022/12/03 05:01:05;;;;;;;27.00;14.93;;;3.50;99.90;;;;;;5108618;28;20123;-66
2022/12/03 05:03:31;;;;;;;25.13;14.40;;;3.50;99.90;;;;;;5108137;28;20140;-66
2022/12/03 05:05:57;;;;;;;27.50;15.60;;;3.50;99.90;;;;;;5091548;28;20040;-66
2022/12/03 05:08:23;;;;;;;26.15;15.80;;;3.50;99.90;;;;;;5108402;28;20173;-67
2022/12/03 05:10:48;;;;;;;25.33;14.30;;;3.50;99.90;;;;;;5108407;28;20092;-66
2022/12/03 05:13:14;;;;;;;25.00;13.40;;;3.50;99.90;;;;;;5091537;28;20043;-66
2022/12/03 05:15:40;;;;;;;25.80;15.07;;;3.50;99.90;;;;;;5107109;28;20382;-66
2022/12/03 05:18:05;;;;;;;22.23;13.88;;;3.50;99.90;;;;;;5091005;28;20234;-66
2022/12/03 05:20:40;;;;;;;21.13;12.30;;;3.60;99.90;;;;;;5091303;28;20106;-67
2022/12/03 05:23:06;;;;;;;27.25;15.20;;;3.60;99.90;;;;;;5107105;28;20174;-66
2022/12/03 05:25:32;;;;;;;28.88;16.20;;;3.60;99.90;;;;;;5091460;28;20063;-67
2022/12/03 05:27:58;;;;;;;27.23;15.13;;;3.60;99.90;;;;;;5091363;28;20382;-67
2022/12/03 05:30:24;;;;;;;24.13;14.55;;;3.60;99.90;;;;;;5106872;28;20063;-66
2022/12/03 05:32:50;;;;;;;25.25;15.13;;;3.60;99.90;;;;;;5090747;28;20370;-67
2022/12/03 05:35:16;;;;;;;26.27;15.88;;;3.60;99.90;;;;;;5106722;28;20036;-67
2022/12/03 05:37:42;;;;;;;27.33;13.70;;;3.50;99.90;;;;;;5091194;28;20039;-66
2022/12/03 05:40:08;;;;;;;26.35;14.70;;;3.60;99.90;;;;;;5106646;28;20044;-67
2022/12/03 05:42:52;;;;;;;23.42;14.38;;;3.60;99.90;;;;;;5090966;28;20036;-67
2022/12/03 05:45:26;;;;;;;26.13;14.38;;;3.60;99.90;;;;;;5090725;28;20040;-67
2022/12/03 05:47:53;;;;;;;24.05;14.65;;;3.60;99.90;;;;;;5106457;28;20048;-67
2022/12/03 05:50:20;;;;;;;25.08;13.00;;;3.60;99.90;;;;;;5090814;28;20628;-66
2022/12/03 05:52:46;;;;;;;26.75;14.82;;;3.50;99.90;;;;;;5089428;28;20056;-66
2022/12/03 05:55:13;;;;;;;28.25;15.10;;;3.50;99.90;;;;;;5072339;28;20046;-67
2022/12/03 05:57:39;;;;;;;26.23;15.10;;;3.50;99.90;;;;;;5090670;28;20036;-66
2022/12/03 06:00:07;;;;;;;27.88;14.93;;;3.60;99.90;;;;;;5090056;28;20058;-63
2022/12/03 06:02:33;;;;;;;25.80;14.63;;;3.50;99.90;;;;;;5089581;28;20286;-64
2022/12/03 06:04:58;;;;;;;28.55;15.57;;;3.50;99.90;;;;;;5106173;28;20519;-64
2022/12/03 06:07:25;;;;;;;26.08;14.85;;;3.60;99.90;;;;;;5090797;28;20323;-65
2022/12/03 06:09:50;;;;;;;26.15;14.95;;;3.60;99.90;;;;;;5106387;28;20081;-65
2022/12/03 06:12:16;;;;;;;26.35;15.05;;;3.60;99.90;;;;;;5089062;28;20062;-65
2022/12/03 06:14:42;;;;;;;28.02;15.18;;;3.60;99.90;;;;;;5089719;28;20035;-65
2022/12/03 06:17:08;;;;;;;29.67;15.75;;;3.60;99.90;;;;;;5106186;28;20040;-64
2022/12/03 06:19:33;;;;;;;27.42;14.93;;;3.50;99.90;;;;;;5090475;28;20446;-64
2022/12/03 06:21:59;;;;;;;26.90;15.20;;;3.50;99.90;;;;;;5105753;28;20063;-65
2022/12/03 06:24:25;;;;;;;24.63;14.90;;;3.60;99.90;;;;;;5105922;28;20047;-65
2022/12/03 06:26:51;;;;;;;28.25;15.90;;;3.60;99.90;;;;;;5089995;28;20435;-64
2022/12/03 06:29:16;;;;;;;31.27;15.82;;;3.60;99.90;;;;;;5105043;28;20389;-65
2022/12/03 06:31:42;;;;;;;27.67;15.35;;;3.60;99.90;;;;;;5105717;28;20047;-67
2022/12/03 06:34:08;;;;;;;29.27;15.48;;;3.60;99.90;;;;;;5090038;28;20040;-66
2022/12/03 06:36:33;;;;;;;28.38;15.73;;;3.60;99.90;;;;;;5090221;28;20484;-66
2022/12/03 06:38:59;;;;;;;27.85;15.27;;;3.50;99.90;;;;;;5090086;28;20119;-67
2022/12/03 06:41:25;;;;;;;34.50;19.90;;;3.50;99.90;;;;;;5089811;28;20036;-66
2022/12/03 06:43:51;;;;;;;27.58;15.45;;;3.60;99.90;;;;;;5089289;28;20051;-66
2022/12/03 06:46:16;;;;;;;27.90;17.10;;;3.60;99.90;;;;;;5089703;28;20123;-67
2022/12/03 06:48:42;;;;;;;25.27;15.00;;;3.60;99.90;;;;;;5089934;28;20123;-66
2022/12/03 06:51:08;;;;;;;25.45;15.45;;;3.60;99.90;;;;;;5089871;28;20082;-68
2022/12/03 06:53:33;;;;;;;29.27;14.60;;;3.60;99.90;;;;;;5105126;28;20091;-66
2022/12/03 06:55:59;;;;;;;26.63;16.30;;;3.60;99.90;;;;;;5104850;28;20052;-67
2022/12/03 06:58:25;;;;;;;29.20;17.20;;;3.50;99.90;;;;;;5104936;28;20040;-67
2022/12/03 07:00:51;;;;;;;30.27;18.48;;;3.50;99.90;;;;;;5089798;28;20472;-67
2022/12/03 07:03:18;;;;;;;29.20;16.60;;;3.50;99.90;;;;;;5089558;28;20565;-67
2022/12/03 07:05:43;;;;;;;27.40;15.43;;;3.50;99.90;;;;;;5105375;28;20104;-67
2022/12/03 07:08:09;;;;;;;27.10;16.20;;;3.50;99.90;;;;;;5089592;28;20043;-67
2022/12/03 07:10:35;;;;;;;27.25;16.35;;;3.50;99.90;;;;;;5089519;28;20136;-67
2022/12/03 07:13:01;;;;;;;26.40;15.07;;;3.50;99.90;;;;;;5104561;28;20048;-66
2022/12/03 07:15:27;;;;;;;28.02;15.70;;;3.40;99.90;;;;;;5105056;28;20078;-66
2022/12/03 07:17:52;;;;;;;27.85;15.50;;;3.40;99.90;;;;;;5088467;28;20040;-67
2022/12/03 07:20:18;;;;;;;26.00;14.77;;;3.40;99.90;;;;;;5089570;28;20044;-67
2022/12/03 07:22:44;;;;;;;26.50;15.15;;;3.30;99.90;;;;;;5105416;28;20032;-66
2022/12/03 07:25:11;;;;;;;26.83;15.15;;;3.30;99.90;;;;;;5105010;28;20568;-67
2022/12/03 07:27:37;;;;;;;30.38;17.75;;;3.30;99.90;;;;;;5104426;28;20052;-67
2022/12/03 07:30:05;;;;;;;25.55;15.93;;;3.30;99.90;;;;;;5104963;28;20109;-67
2022/12/03 07:32:30;;;;;;;27.98;16.00;;;3.30;99.90;;;;;;5087881;28;20067;-67
2022/12/03 07:34:56;;;;;;;26.13;13.57;;;3.30;99.90;;;;;;5105021;28;20072;-66
2022/12/03 07:37:22;;;;;;;28.45;15.98;;;3.30;99.90;;;;;;5089170;28;20054;-66
2022/12/03 07:39:47;;;;;;;27.63;15.95;;;3.30;99.90;;;;;;5105172;28;20042;-66
2022/12/03 07:42:13;;;;;;;29.20;16.73;;;3.30;99.90;;;;;;5104373;28;20400;-66
2022/12/03 07:44:39;;;;;;;29.35;16.17;;;3.30;99.90;;;;;;5089279;28;20079;-66
2022/12/03 07:47:04;;;;;;;25.88;15.02;;;3.30;99.90;;;;;;5089279;28;20040;-66
2022/12/03 07:49:30;;;;;;;25.15;13.57;;;3.30;99.90;;;;;;5089237;28;20463;-66
2022/12/03 07:51:56;;;;;;;25.88;14.68;;;3.30;99.90;;;;;;5104434;28;20512;-66
2022/12/03 07:54:25;;;;;;;29.85;15.77;;;3.30;99.90;;;;;;5088950;28;20044;-66
2022/12/03 07:56:51;;;;;;;28.10;15.80;;;3.30;99.90;;;;;;5088455;28;20119;-66
2022/12/03 07:59:18;;;;;;;28.23;15.80;;;3.30;99.90;;;;;;5104610;28;20036;-66
2022/12/03 08:01:44;;;;;;;27.90;15.07;;;3.30;99.90;;;;;;5089231;28;20369;-65
2022/12/03 08:04:13;;;;;;;30.02;16.17;;;3.20;99.90;;;;;;5088969;28;20534;-67
2022/12/03 08:06:39;;;;;;;28.52;15.70;;;3.20;99.90;;;;;;5105778;28;20110;-66
2022/12/03 08:09:05;;;;;;;26.52;15.95;;;3.30;99.90;;;;;;5093135;28;20039;-66
2022/12/03 08:11:32;;;;;;;30.58;16.35;;;3.20;99.90;;;;;;5093241;28;20499;-67
2022/12/03 08:13:58;;;;;;;31.17;16.33;;;3.30;99.90;;;;;;5075378;28;20460;-66
2022/12/03 08:16:24;;;;;;;26.73;15.75;;;3.20;99.90;;;;;;5109392;28;20036;-66
2022/12/03 08:18:53;;;;;;;29.85;17.13;;;3.20;99.90;;;;;;5109509;28;20123;-66
2022/12/03 08:21:20;;;;;;;29.20;16.67;;;3.20;99.90;;;;;;5093531;28;20492;-67
2022/12/03 08:23:46;;;;;;;30.67;17.20;;;3.20;99.90;;;;;;5109354;28;20043;-66
2022/12/03 08:26:27;;;;;;;36.45;19.55;;;3.20;99.90;;;;;;5109008;28;20040;-66
2022/12/03 08:28:53;;;;;;;50.97;25.10;;;3.20;99.90;;;;;;5093444;28;20044;-67
2022/12/03 08:31:24;;;;;;;42.30;24.02;;;3.20;99.90;;;;;;5109085;28;20082;-66
2022/12/03 08:34:05;;;;;;;78.00;37.80;;;3.20;99.90;;;;;;5109363;28;20404;-67
2022/12/03 08:36:32;;;;;;;64.55;36.10;;;3.20;99.90;;;;;;5109245;28;20051;-66
2022/12/03 08:39:01;;;;;;;43.70;24.08;;;3.20;99.90;;;;;;5108950;28;20105;-67
2022/12/03 08:44:20;;;;;;;31.67;15.50;;;3.20;99.90;;;;;;5108982;28;20043;-67
2022/12/03 08:47:09;;;;;;;28.27;15.70;;;3.20;99.90;;;;;;5108790;28;20484;-66
2022/12/03 08:49:39;;;;;;;28.30;15.68;;;3.10;99.90;;;;;;5092956;28;20128;-67
2022/12/03 08:52:32;;;;;;;35.65;17.80;;;3.10;99.90;;;;;;5108562;28;20056;-67
2022/12/03 08:55:01;;;;;;;32.15;16.55;;;3.10;99.90;;;;;;5105083;28;20567;-68
2022/12/03 08:57:29;;;;;;;35.55;21.20;;;3.00;99.90;;;;;;5092734;28;20036;-67
2022/12/03 09:00:05;;;;;;;29.42;16.58;;;3.00;99.90;;;;;;5108825;28;20051;-67
2022/12/03 09:02:33;;;;;;;30.00;17.13;;;3.00;99.90;;;;;;5092816;28;20235;-66
2022/12/03 09:05:11;;;;;;;34.88;17.88;;;2.90;99.90;;;;;;5092853;28;20403;-66
2022/12/03 09:07:37;;;;;;;28.98;16.55;;;2.90;99.90;;;;;;5092621;28;20105;-67
2022/12/03 09:10:03;;;;;;;34.20;17.98;;;2.90;99.90;;;;;;5092456;28;20040;-68
2022/12/03 09:12:29;;;;;;;33.15;18.33;;;2.90;99.90;;;;;;5074733;28;20055;-67
2022/12/03 09:14:54;;;;;;;32.13;17.25;;;2.80;99.90;;;;;;5092631;28;20040;-67
2022/12/03 09:17:20;;;;;;;30.20;17.25;;;2.90;99.90;;;;;;5074471;28;20689;-66
2022/12/03 09:19:46;;;;;;;31.05;16.60;;;2.80;99.90;;;;;;5073744;28;20036;-66
2022/12/03 09:22:12;;;;;;;30.50;16.30;;;2.80;99.90;;;;;;5074523;28;20036;-66
2022/12/03 09:24:38;;;;;;;30.92;18.67;;;2.80;99.90;;;;;;5074059;28;20476;-66
2022/12/03 09:27:03;;;;;;;30.17;18.17;;;2.80;99.90;;;;;;5074185;28;20093;-66
2022/12/03 09:29:29;;;;;;;29.88;16.60;;;2.80;99.90;;;;;;5074511;28;20048;-67
2022/12/03 09:31:55;;;;;;;32.55;16.70;;;2.80;99.90;;;;;;5073905;28;20048;-67
2022/12/03 09:34:20;;;;;;;30.95;15.90;;;2.80;99.90;;;;;;5073882;28;20048;-66
2022/12/03 09:36:46;;;;;;;30.60;15.13;;;2.90;99.90;;;;;;5091947;28;20047;-66
2022/12/03 09:39:12;;;;;;;38.75;19.05;;;2.80;99.90;;;;;;5091597;28;20051;-68
2022/12/03 09:41:38;;;;;;;35.15;19.25;;;2.90;99.90;;;;;;5073859;28;20073;-69
2022/12/03 09:44:04;;;;;;;29.20;16.98;;;2.90;99.90;;;;;;5073946;28;20059;-68
2022/12/03 09:46:30;;;;;;;34.75;16.25;;;2.80;99.90;;;;;;5092035;28;20477;-69
2022/12/03 09:48:56;;;;;;;35.08;18.25;;;2.80;99.90;;;;;;5073259;28;20036;-68
2022/12/03 09:51:25;;;;;;;34.63;18.40;;;2.80;99.90;;;;;;5056073;28;20054;-68
2022/12/03 09:53:51;;;;;;;41.72;19.88;;;2.80;99.90;;;;;;5072902;28;20063;-68
2022/12/03 09:56:21;;;;;;;33.50;15.88;;;2.80;99.90;;;;;;5091823;28;20488;-69
2022/12/03 09:58:47;;;;;;;31.47;15.83;;;2.80;99.90;;;;;;5039914;28;20044;-69
2022/12/03 10:01:14;;;;;;;36.03;18.75;;;2.80;99.90;;;;;;5073445;28;20124;-69
2022/12/03 10:03:50;;;;;;;35.72;19.10;;;2.80;99.90;;;;;;5092011;28;20040;-68
2022/12/03 10:06:20;;;;;;;39.15;20.38;;;2.80;99.90;;;;;;5109430;28;20042;-68
2022/12/03 10:08:48;;;;;;;48.17;22.88;;;2.80;99.90;;;;;;5106547;28;20032;-68
2022/12/03 10:11:17;;;;;;;34.33;17.90;;;2.80;99.90;;;;;;5091216;28;20032;-69
2022/12/03 10:13:43;;;;;;;36.90;18.67;;;2.80;99.90;;;;;;5073170;28;20040;-69
2022/12/03 10:16:14;;;;;;;39.58;20.70;;;2.90;99.90;;;;;;5091251;28;20032;-69
2022/12/03 10:18:43;;;;;;;38.28;20.17;;;2.90;99.90;;;;;;5073060;28;20147;-68
2022/12/03 10:21:36;;;;;;;35.53;19.70;;;2.90;99.90;;;;;;5090687;28;20100;-68
2022/12/03 10:24:22;;;;;;;33.60;17.45;;;2.90;99.90;;;;;;5072853;28;20500;-68
2022/12/03 10:26:49;;;;;;;34.78;18.10;;;2.90;99.90;;;;;;5073154;28;20643;-68
2022/12/03 10:29:22;;;;;;;31.65;17.58;;;2.90;99.90;;;;;;5072575;28;20066;-68
2022/12/03 10:31:55;;;;;;;53.42;28.02;;;2.90;99.90;;;;;;5071932;28;20139;-68
2022/12/03 10:34:41;;;;;;;40.38;20.08;;;2.90;99.90;;;;;;5072605;28;20036;-67
2022/12/03 10:37:15;;;;;;;34.08;17.95;;;2.90;99.90;;;;;;5090148;28;20437;-67
2022/12/03 10:39:59;;;;;;;43.75;22.70;;;2.90;99.90;;;;;;5091227;28;20555;-67
2022/12/03 10:42:29;;;;;;;35.00;18.52;;;2.90;99.90;;;;;;5072657;28;20046;-67
2022/12/03 10:45:17;;;;;;;40.88;21.30;;;2.90;99.90;;;;;;5090915;28;20040;-67
2022/12/03 10:48:00;;;;;;;39.10;19.45;;;2.90;99.90;;;;;;5072628;28;20044;-66
2022/12/03 10:50:26;;;;;;;41.25;21.17;;;2.90;99.90;;;;;;5090077;28;20404;-67
2022/12/03 10:52:52;;;;;;;33.08;18.75;;;2.90;99.90;;;;;;5069061;28;20052;-67
2022/12/03 10:55:18;;;;;;;37.70;20.20;;;2.90;99.90;;;;;;5052344;28;20429;-67
2022/12/03 10:57:44;;;;;;;34.90;19.45;;;2.90;99.90;;;;;;5069208;28;20382;-67
2022/12/03 11:00:18;;;;;;;38.03;20.40;;;3.00;99.90;;;;;;5069076;28;20040;-67
2022/12/03 11:02:45;;;;;;;34.58;20.13;;;3.00;99.90;;;;;;5069183;28;20037;-67
2022/12/03 11:05:20;;;;;;;38.00;19.75;;;3.00;99.90;;;;;;5070063;28;20047;-68
2022/12/03 11:07:46;;;;;;;34.83;18.70;;;3.00;99.90;;;;;;5052290;28;20094;-65
2022/12/03 11:10:17;;;;;;;36.55;20.00;;;3.00;99.90;;;;;;5069001;28;20049;-69
2022/12/03 11:13:02;;;;;;;;;;;2.90;99.90;;;;;;5069635;28;20040;-66
2022/12/03 11:15:43;;;;;;;38.13;19.25;;;3.00;99.90;;;;;;5070036;28;20499;-65
2022/12/03 11:18:08;;;;;;;39.75;22.25;;;2.90;99.90;;;;;;5070489;28;20169;-68
2022/12/03 11:20:54;;;;;;;41.75;21.50;;;2.90;99.90;;;;;;5068505;28;20042;-67
2022/12/03 11:23:45;;;;;;;36.63;19.02;;;2.90;99.90;;;;;;5068928;28;20036;-67
2022/12/03 11:26:37;;;;;;;50.95;27.65;;;2.90;99.90;;;;;;5070080;28;20059;-67
2022/12/03 11:29:08;;;;;;;44.95;24.20;;;2.80;99.90;;;;;;5068949;28;20527;-67
2022/12/03 11:31:45;;;;;;;45.38;25.90;;;2.80;99.90;;;;;;5069048;28;20040;-68
2022/12/03 11:34:31;;;;;;;38.88;20.83;;;2.90;99.90;;;;;;5068354;28;20040;-68
2022/12/03 11:37:09;;;;;;;50.55;25.85;;;2.90;99.90;;;;;;5071597;28;20504;-69
2022/12/03 11:39:46;;;;;;;45.58;21.60;;;2.90;99.90;;;;;;5068771;28;20037;-68
2022/12/03 11:42:29;;;;;;;41.65;22.55;;;3.00;99.90;;;;;;5070263;28;20040;-69
2022/12/03 11:45:04;;;;;;;38.63;21.00;;;2.90;99.90;;;;;;5073188;28;20101;-70
2022/12/03 11:47:33;;;;;;;40.55;20.42;;;2.90;99.90;;;;;;5072238;28;20374;-68
2022/12/03 11:50:00;;;;;;;39.00;18.98;;;3.00;99.90;;;;;;5072767;28;20428;-69
2022/12/03 11:52:31;;;;;;;43.95;22.52;;;3.00;99.90;;;;;;5082664;28;20127;-69
2022/12/03 11:55:12;;;;;;;45.53;22.45;;;3.00;99.90;;;;;;5093684;28;20123;-69
2022/12/03 11:57:38;;;;;;;49.95;26.58;;;2.90;99.90;;;;;;5075688;28;20040;-71
2022/12/03 12:00:13;;;;;;;44.00;21.88;;;2.90;99.90;;;;;;5093640;28;20067;-74
2022/12/03 12:02:38;;;;;;;37.20;19.83;;;2.90;99.90;;;;;;5093142;28;20104;-70
2022/12/03 12:05:25;;;;;;;40.45;21.27;;;3.00;99.90;;;;;;5074994;28;20048;-71
2022/12/03 12:07:52;;;;;;;46.53;24.52;;;3.00;99.90;;;;;;5093005;28;20042;-71
2022/12/03 12:10:44;;;;;;;61.60;30.80;;;3.00;99.90;;;;;;5058553;28;20096;-70
2022/12/03 12:13:46;;;;;;;45.65;22.75;;;3.00;99.90;;;;;;5105019;28;20093;-70
2022/12/03 12:16:12;;;;;;;40.42;21.25;;;2.90;99.90;;;;;;5095781;28;20138;-70
2022/12/03 12:18:50;;;;;;;49.53;25.10;;;2.90;99.90;;;;;;5113365;28;20524;-68
2022/12/03 12:21:40;;;;;;;32.92;19.35;;;3.00;99.90;;;;;;5113924;28;20046;-71
2022/12/03 12:24:29;;;;;;;39.23;20.67;;;2.90;99.90;;;;;;5095579;28;20040;-67
2022/12/03 12:27:09;;;;;;;36.03;18.92;;;2.90;99.90;;;;;;5092227;28;20424;-66
2022/12/03 12:29:36;;;;;;;;;;;2.90;99.90;;;;;;5093499;28;20407;-66
2022/12/03 12:32:19;;;;;;;38.15;19.45;;;2.80;99.90;;;;;;5092776;28;19916;-66
2022/12/03 12:34:50;;;;;;;34.67;18.45;;;2.80;99.90;;;;;;5075296;28;20036;-66
2022/12/03 12:37:18;;;;;;;35.03;17.98;;;2.80;99.90;;;;;;5075163;28;20481;-66
2022/12/03 12:39:44;;;;;;;36.85;18.95;;;2.80;99.90;;;;;;5093149;28;20051;-67
2022/12/03 12:42:33;;;;;;;38.70;18.88;;;2.80;99.90;;;;;;5093003;28;20480;-67
2022/12/03 12:45:21;;;;;;;45.80;22.67;;;2.70;99.90;;;;;;5075007;28;20044;-67
2022/12/03 12:47:56;;;;;;;37.20;20.85;;;2.70;99.90;;;;;;5074418;28;20484;-67
2022/12/03 12:50:23;;;;;;;40.60;22.02;;;2.70;99.90;;;;;;5074997;28;20451;-67
2022/12/03 12:52:56;;;;;;;50.30;22.77;;;2.70;99.90;;;;;;5074256;28;20060;-67
2022/12/03 12:55:22;;;;;;;66.43;33.50;;;2.70;99.90;;;;;;5092079;28;20048;-67
2022/12/03 12:57:48;;;;;;;45.63;23.15;;;2.60;99.90;;;;;;5074119;28;20036;-67
2022/12/03 13:00:21;;;;;;;52.67;25.75;;;2.70;99.90;;;;;;5075066;28;20047;-67
2022/12/03 13:03:00;;;;;;;63.65;32.65;;;2.70;99.90;;;;;;5092353;28;20502;-67
2022/12/03 13:05:31;;;;;;;51.63;26.10;;;2.70;99.90;;;;;;5093151;28;20072;-67
2022/12/03 13:07:56;;;;;;;40.17;22.38;;;2.70;99.90;;;;;;5092945;28;20404;-67
2022/12/03 13:10:36;;;;;;;49.53;24.55;;;2.70;99.90;;;;;;5073981;28;20040;-66
2022/12/03 13:13:22;;;;;;;41.00;22.23;;;2.60;99.90;;;;;;5074251;28;20708;-67